x

Corpus Christi, Tx - 60nm Sse Of Corpus Christi, Tx (42020) Wave Buoy

4:50pm - Tue 22nd Aug 2017 All times are CDT. -5 hours from GMT.

  • Sig Wave height 3.6ft
  • Swell Direction
  • Peak Period 6s
  • Average Period 5s
  • Wind
    9mph, 11mph gusts
  • Air Temp 85°f
  • Sea Pressure 1014.6mb
  • Corpus Christi, Tx - 60nm Sse Of Corpus Christi, Tx
  • Corpus Christi, Tx - 60nm Sse Of Corpus Christi, Tx

More Historic Weather Station data

Upgrade to MSW Pro to gain access to the past 30 days of data for over 8000 Wavebouys and Weather Stations around the globe.

Join

Comparision Forecast

View Surf forecast
   
Tue 08/22 4:50pm 3.5ft 6s 5s 9 11 mph 1014.6mb 85f
3:50pm 3.5ft 7s 5s 16 20 mph 1015mb 83f
1:50pm 3.5ft 6s 5s 11 13 mph 1016.1mb 85f
12:50pm 3ft 6s 5s 11 13 mph 1016.5mb 85f
11:50am 3ft 6s 5s 11 11 mph 1016.5mb 85f
10:50am 3.5ft 6s 5s 2 4 mph 1016.3mb 83f
7:50am 3.5ft 6s 5s 4 7 mph 1014.7mb 84f
6:50am 3.5ft 6s 5s 7 9 mph 1014.3mb 84f
5:50am 3.5ft 6s 5s 9 11 mph 1014.1mb 84f
4:50am 3.5ft 6s 5s 11 13 mph 1014.3mb 84f
3:50am 3.5ft 6s 5s 11 13 mph 1015mb 84f
2:50am 3.5ft 5s 5s 11 16 mph 1015.4mb 84f
1:50am 3.5ft 5s 5s 9 9 mph 1015.8mb 83f
12:50am 4.5ft 6s 4s 9 11 mph 1016.4mb 82f
Mon 08/21 11:50pm 3.5ft 5s 4s 25 31 mph 1016.6mb 84f
10:50pm 3.5ft 5s 4s 18 20 mph 1016.2mb 85f
9:50pm 3.5ft 5s 4s 16 18 mph 1015.9mb 84f
8:50pm 2.5ft 5s 4s 22 29 mph 1015.5mb 83f
7:50pm 2.5ft 5s 4s 16 16 mph 1015mb 85f
6:50pm 2.5ft 5s 4s 13 18 mph 1014.7mb 85f
5:50pm 2.5ft 5s 4s 11 13 mph 1014.5mb 85f
4:50pm 2.5ft 5s 4s 11 13 mph 1014.8mb 85f
3:50pm 2ft 5s 4s 11 13 mph 1015mb 85f
2:50pm 2.5ft 5s 4s 11 11 mph 1015.4mb 85f
1:50pm 2.5ft 5s 4s 11 11 mph 1015.5mb 85f
12:50pm 2ft 5s 4s 9 11 mph 1016.1mb 85f
11:50am 2.5ft 5s 4s 9 11 mph 1016.3mb 85f
10:50am 2.5ft 5s 4s 9 11 mph 1016.2mb 85f
9:50am 2.5ft 5s 4s 9 11 mph 1015.7mb 85f
8:50am 2.5ft 5s 4s 9 11 mph 1015.4mb 85f
7:50am 2.5ft 5s 4s 9 11 mph 1015.1mb 85f
6:50am 2.5ft 5s 4s 9 11 mph 1014.7mb 84f
5:50am 2.5ft 5s 4s 9 11 mph 1014.7mb 85f
4:50am 2.5ft 5s 4s 11 13 mph 1014.6mb 85f
3:50am 2.5ft 5s 4s 11 13 mph 1014.8mb 85f
2:50am 2.5ft 5s 4s 11 13 mph 1014.9mb 85f
1:50am 2.5ft 4s 4s 11 13 mph 1015.3mb 85f
12:50am 3ft 4s 4s 13 18 mph 1015.4mb 85f
Sun 08/20 11:50pm 2.5ft 4s 4s 16 18 mph 1015mb 85f
10:50pm 2.5ft 4s 4s 18 20 mph 1014.5mb 85f
9:50pm 2.5ft 4s 4s 16 18 mph 1013.9mb 85f
8:50pm 2ft 4s 3s 18 20 mph 1013.5mb 86f
7:50pm 2ft 4s 4s 16 18 mph 1013mb 85f
6:50pm 1.6ft 4s 4s 13 16 mph 1013mb 86f
5:50pm 1.6ft 5s 4s 13 16 mph 1013.1mb 86f
4:50pm 1.6ft 4s 4s 11 13 mph 1013.1mb 85f
3:50pm 1.6ft 5s 4s 11 11 mph 1013.4mb 85f
2:50pm 1.6ft 4s 4s 11 13 mph 1013.8mb 85f
1:50pm 1.6ft 5s 4s 11 13 mph 1014.3mb 85f
12:50pm 2ft 5s 4s 9 11 mph 1014.8mb 85f
11:50am 1.6ft 5s 4s 9 11 mph 1015.1mb 85f
10:50am 2ft 5s 4s 9 9 mph 1014.9mb 85f
9:50am 2ft 5s 4s 7 9 mph 1014.5mb 85f
8:50am 2ft 4s 4s 7 9 mph 1014.1mb 85f
7:50am 2.5ft 5s 4s 9 11 mph 1013.3mb 85f
6:50am 2.5ft 4s 4s 9 11 mph 1012.9mb 84f
5:50am 2.5ft 4s 4s 11 13 mph 1012.8mb 84f
4:50am 2.5ft 4s 4s 13 16 mph 1013mb 85f
3:50am 2.5ft 4s 4s 13 16 mph 1013.1mb 85f
2:50am 2.5ft 5s 4s 13 16 mph 1013.7mb 85f
1:50am 2.5ft 4s 4s 13 16 mph 1014.1mb 85f
12:50am 2.5ft 4s 4s 13 16 mph 1014.5mb 85f
Sat 08/19 11:50pm 2.5ft 4s 4s 16 18 mph 1014.4mb 85f
10:50pm 2.5ft 5s 4s 16 18 mph 1014.4mb 85f
9:50pm 2.5ft 5s 4s 16 20 mph 1013.6mb 85f
8:50pm 2.5ft 5s 4s 16 18 mph 1012.9mb 85f
7:50pm 2ft 5s 4s 16 18 mph 1012mb 85f
6:50pm 2ft 5s 4s 13 16 mph 1011.8mb 86f
5:50pm 2ft 5s 4s 11 13 mph 1012.4mb 85f
4:50pm 2ft 5s 4s 11 13 mph 1012.5mb 85f
3:50pm 2ft 5s 4s 9 11 mph 1013.4mb 85f
2:50pm 2ft 6s 4s 7 9 mph 1014mb 85f
1:50pm 2ft 6s 4s 7 9 mph 1014.6mb 85f
12:50pm 2ft 6s 4s 4 4 mph 1015.1mb 85f
11:50am 2.5ft 6s 4s 4 4 mph 1015.1mb 85f
10:50am 2.5ft 6s 5s 4 7 mph 1015.2mb 85f
9:50am 2.5ft 6s 4s 4 4 mph 1015.1mb 85f
8:50am 2.5ft 6s 4s 7 9 mph 1014.8mb 85f
7:50am 3ft 6s 4s 9 9 mph 1014.2mb 84f
6:50am 3ft 6s 4s 13 16 mph 1013.5mb 84f
5:50am 3ft 6s 4s 11 16 mph 1013.6mb 84f
4:50am 3.5ft 6s 4s 16 20 mph 1013.3mb 84f
3:50am 3.5ft 6s 4s 18 20 mph 1013.3mb 85f
2:50am 3ft 6s 4s 16 18 mph 1014.4mb 85f
1:50am 3.5ft 6s 4s 13 16 mph 1015.1mb 85f
12:50am 3.5ft 6s 4s 13 18 mph 1015.4mb 85f
Fri 08/18 11:50pm 3.5ft 6s 5s 16 18 mph 1015.3mb 85f
10:50pm 3.5ft 6s 5s 16 18 mph 1015.1mb 85f